Time;durP1;ratioP1;P1;durP2;ratioP2;P2;SDS_P1;SDS_P2;PMS_P1;PMS_P2;Temp;Humidity;BMP_temperature;BMP_pressure;BME280_temperature;BME280_humidity;BME280_pressure;Samples;Min_cycle;Max_cycle;Signal;HPM_P1;HPM_P2
2021/11/11 00:00:38;;;;;;;28.12;14.63;;;;;;;21.94;40.83;101342.13;4431927;32;20065;-71
2021/11/11 00:03:05;;;;;;;28.55;15.02;;;;;;;22.15;40.78;101346.53;4438127;32;20815;-71
2021/11/11 00:05:31;;;;;;;30.23;15.13;;;;;;;21.93;41.05;101340.56;4435081;32;20041;-71
2021/11/11 00:07:57;;;;;;;29.00;15.52;;;;;;;22.07;40.79;101340.47;4430564;32;20069;-71
2021/11/11 00:10:24;;;;;;;28.73;14.95;;;;;;;21.96;41.17;101340.31;4433622;32;20422;-71
2021/11/11 00:12:51;;;;;;;30.30;15.77;;;;;;;22.05;41.21;101343.03;4433973;32;20084;-71
2021/11/11 00:15:18;;;;;;;31.33;16.00;;;;;;;21.95;41.24;101341.63;4433084;32;20182;-70
2021/11/11 00:17:45;;;;;;;33.22;16.10;;;;;;;21.91;40.94;101346.78;4436770;32;20049;-70
2021/11/11 00:20:13;;;;;;;30.37;15.23;;;;;;;21.82;41.22;101343.25;4435735;32;20081;-70
2021/11/11 00:22:41;;;;;;;27.55;16.02;;;;;;;22.12;40.59;101351.19;4432912;32;20022;-70
2021/11/11 00:25:08;;;;;;;29.95;16.08;;;;;;;21.99;41.02;101350.00;4435239;32;21188;-70
2021/11/11 00:27:34;;;;;;;30.73;16.30;;;;;;;22.01;41.11;101336.72;4433607;32;20064;-70
2021/11/11 00:30:00;;;;;;;35.63;17.15;;;;;;;21.87;41.23;101349.06;4419714;32;20441;-70
2021/11/11 00:32:26;;;;;;;28.55;15.85;;;;;;;21.65;41.39;101351.59;4434070;32;20385;-70
2021/11/11 00:34:53;;;;;;;30.98;15.20;;;;;;;21.86;40.93;101352.44;4435116;32;20672;-70
2021/11/11 00:37:21;;;;;;;30.48;16.35;;;;;;;21.76;41.19;101342.41;4434335;32;20142;-70
2021/11/11 00:39:48;;;;;;;33.80;16.20;;;;;;;21.98;41.02;101354.94;4435406;32;20419;-70
2021/11/11 00:42:14;;;;;;;27.17;15.35;;;;;;;21.87;41.07;101346.19;4434350;32;20527;-70
2021/11/11 00:44:40;;;;;;;32.47;16.35;;;;;;;21.77;41.31;101344.78;4435410;32;20135;-70
2021/11/11 00:47:06;;;;;;;35.75;16.77;;;;;;;21.84;41.35;101352.16;4434505;32;20099;-70
2021/11/11 00:49:32;;;;;;;31.45;15.57;;;;;;;21.79;41.46;101341.41;4436486;32;20077;-70
2021/11/11 00:51:59;;;;;;;32.08;16.12;;;;;;;21.83;41.56;101341.97;4437142;32;20101;-70
2021/11/11 00:54:24;;;;;;;29.98;15.43;;;;;;;21.76;41.67;101343.19;4435873;32;20342;-70
2021/11/11 00:56:50;;;;;;;27.67;15.48;;;;;;;21.79;41.50;101345.06;4432707;32;20082;-70
2021/11/11 00:59:15;;;;;;;31.30;16.85;;;;;;;21.84;41.42;101347.19;4436163;32;20101;-70
2021/11/11 01:01:41;;;;;;;31.15;16.52;;;;;;;21.73;41.89;101340.50;4431462;32;20092;-71
2021/11/11 01:04:07;;;;;;;33.42;16.65;;;;;;;21.66;41.92;101333.94;4437676;32;20411;-70
2021/11/11 01:06:33;;;;;;;29.23;15.82;;;;;;;21.71;42.14;101332.41;4434118;32;20455;-70
2021/11/11 01:08:59;;;;;;;28.95;16.20;;;;;;;21.84;41.75;101330.00;4433322;32;20088;-70
2021/11/11 01:11:26;;;;;;;33.83;16.02;;;;;;;21.72;41.71;101324.63;4434431;32;20407;-70
2021/11/11 01:13:52;;;;;;;33.72;17.58;;;;;;;21.80;41.75;101337.25;4420050;32;20089;-70
2021/11/11 01:16:19;;;;;;;27.90;15.98;;;;;;;21.74;42.02;101331.44;4434015;32;20142;-70
2021/11/11 01:18:45;;;;;;;30.98;16.70;;;;;;;21.69;42.13;101323.53;4436287;32;20083;-70
2021/11/11 01:21:11;;;;;;;32.42;16.60;;;;;;;21.60;42.28;101330.19;4434181;32;20107;-70
2021/11/11 01:23:37;;;;;;;30.37;16.10;;;;;;;21.57;42.33;101325.47;4433205;32;20462;-70
2021/11/11 01:26:04;;;;;;;32.85;16.37;;;;;;;21.59;42.23;101327.84;4433869;32;20077;-70
2021/11/11 01:28:31;;;;;;;34.88;16.98;;;;;;;21.65;42.33;101326.62;4433015;32;20180;-70
2021/11/11 01:30:57;;;;;;;29.83;16.17;;;;;;;21.41;42.39;101328.91;4431304;32;20727;-70
2021/11/11 01:33:23;;;;;;;32.05;16.00;;;;;;;21.44;42.60;101332.84;4434476;32;20395;-70
2021/11/11 01:35:49;;;;;;;32.00;16.92;;;;;;;21.54;42.40;101337.91;4432428;32;20089;-70
2021/11/11 01:38:16;;;;;;;32.78;17.48;;;;;;;21.57;42.48;101336.94;4432322;32;20093;-70
2021/11/11 01:40:42;;;;;;;35.45;16.35;;;;;;;21.59;42.25;101333.56;4432772;32;20085;-70
2021/11/11 01:43:08;;;;;;;34.05;17.67;;;;;;;21.62;42.25;101338.28;4432029;32;20422;-70
2021/11/11 01:45:37;;;;;;;43.78;18.12;;;;;;;21.48;42.39;101333.44;4435003;32;20075;-70
2021/11/11 01:48:04;;;;;;;28.40;16.10;;;;;;;21.65;42.42;101340.16;4435860;32;20091;-70
2021/11/11 01:50:31;;;;;;;34.90;17.17;;;;;;;21.47;42.66;101335.50;4434227;32;20084;-70
2021/11/11 01:52:59;;;;;;;34.58;16.75;;;;;;;21.57;42.46;101331.19;4434626;32;20096;-70
2021/11/11 01:55:26;;;;;;;38.85;17.35;;;;;;;21.68;42.28;101337.09;4435013;32;20123;-70
2021/11/11 01:57:51;;;;;;;34.63;16.58;;;;;;;21.54;42.70;101331.44;4432962;32;20125;-70
2021/11/11 02:00:22;;;;;;;33.25;16.58;;;;;;;21.41;42.79;101337.50;4432168;32;21611;-70
2021/11/11 02:02:55;;;;;;;31.60;16.62;;;;;;;21.64;42.62;101327.12;4432207;32;20125;-70
2021/11/11 02:05:20;;;;;;;36.20;15.77;;;;;;;21.61;42.37;101331.78;4431546;32;20385;-70
2021/11/11 02:07:49;;;;;;;29.77;14.87;;;;;;;21.44;42.58;101324.25;4430437;32;20126;-70
2021/11/11 02:10:15;;;;;;;33.75;15.60;;;;;;;21.56;42.59;101321.03;4432474;32;20121;-70
2021/11/11 02:12:42;;;;;;;29.75;15.93;;;;;;;21.34;42.64;101322.81;4436114;32;20127;-71
2021/11/11 02:15:08;;;;;;;31.33;17.10;;;;;;;21.40;42.46;101315.88;4432600;32;20049;-70
2021/11/11 02:17:34;;;;;;;36.72;17.52;;;;;;;21.25;42.70;101326.59;4433729;32;20057;-70
2021/11/11 02:20:06;;;;;;;33.72;15.95;;;;;;;21.45;42.80;101315.16;4416607;32;20145;-70
2021/11/11 02:22:32;;;;;;;32.90;16.60;;;;;;;21.59;42.53;101317.19;4432993;32;20058;-70
2021/11/11 02:24:58;;;;;;;29.73;15.50;;;;;;;21.45;42.59;101314.38;4431753;32;21128;-70
2021/11/11 02:27:24;;;;;;;31.95;16.10;;;;;;;21.43;42.67;101316.94;4432132;32;20073;-70
2021/11/11 02:29:50;;;;;;;37.08;17.05;;;;;;;21.42;42.61;101316.16;4418582;32;20377;-70
2021/11/11 02:32:16;;;;;;;33.60;16.75;;;;;;;21.51;42.40;101307.41;4431965;32;20437;-70
2021/11/11 02:34:43;;;;;;;34.25;15.63;;;;;;;21.44;42.71;101305.00;4433276;32;20443;-70
2021/11/11 02:37:08;;;;;;;36.00;15.25;;;;;;;21.42;42.74;101306.78;4432912;32;20086;-70
2021/11/11 02:39:37;;;;;;;37.38;17.10;;;;;;;21.36;42.60;101305.91;4435914;32;20134;-70
2021/11/11 02:42:03;;;;;;;34.75;16.10;;;;;;;21.56;42.76;101298.13;4435261;32;20733;-70
2021/11/11 02:44:31;;;;;;;34.25;16.10;;;;;;;21.58;42.54;101294.75;4435470;32;20041;-70
2021/11/11 02:46:58;;;;;;;34.95;17.48;;;;;;;21.56;42.61;101286.66;4430842;32;20059;-70
2021/11/11 02:49:31;;;;;;;33.92;17.75;;;;;;;21.53;42.65;101287.66;4430354;32;20128;-70
2021/11/11 02:51:57;;;;;;;34.08;16.40;;;;;;;21.73;42.44;101288.94;4433122;32;20091;-70
2021/11/11 02:54:22;;;;;;;42.15;17.10;;;;;;;21.48;42.28;101302.69;4433498;32;20033;-70
2021/11/11 02:56:49;;;;;;;34.95;17.83;;;;;;;21.48;42.53;101294.09;4434166;32;20055;-70
2021/11/11 02:59:15;;;;;;;42.17;16.65;;;;;;;21.50;42.42;101293.59;4433717;32;20081;-70
2021/11/11 03:01:41;;;;;;;36.42;17.55;;;;;;;21.39;42.68;101293.47;4432272;32;20097;-70
2021/11/11 03:04:07;;;;;;;35.40;17.70;;;;;;;21.37;42.58;101284.59;4432536;32;20065;-70
2021/11/11 03:06:33;;;;;;;38.78;17.42;;;;;;;21.11;42.63;101292.28;4429642;32;20033;-70
2021/11/11 03:09:00;;;;;;;41.65;18.85;;;;;;;20.98;42.75;101298.34;4419977;32;20524;-70
2021/11/11 03:11:33;;;;;;;42.38;18.90;;;;;;;21.15;42.06;101293.66;4434406;32;20042;-70
2021/11/11 03:13:59;;;;;;;39.60;18.20;;;;;;;21.21;42.17;101290.87;4435223;32;20465;-70
2021/11/11 03:16:25;;;;;;;40.40;19.37;;;;;;;21.22;42.20;101293.22;4432040;32;20037;-70
2021/11/11 03:18:51;;;;;;;38.70;18.33;;;;;;;21.07;42.18;101303.94;4419412;32;20102;-70
2021/11/11 03:21:17;;;;;;;46.42;19.87;;;;;;;21.23;42.24;101294.81;4434492;32;20029;-70
2021/11/11 03:23:42;;;;;;;43.80;20.95;;;;;;;21.45;41.82;101297.19;4435676;32;20041;-70
2021/11/11 03:26:08;;;;;;;42.55;18.87;;;;;;;21.38;41.70;101301.25;4435145;32;20037;-70
2021/11/11 03:28:34;;;;;;;40.00;18.40;;;;;;;21.49;41.60;101298.56;4433846;32;20485;-70
2021/11/11 03:31:00;;;;;;;41.55;19.77;;;;;;;21.50;41.70;101297.25;4434891;32;20060;-70
2021/11/11 03:33:25;;;;;;;41.33;18.73;;;;;;;21.37;41.91;101298.91;4433354;32;20508;-70
2021/11/11 03:35:51;;;;;;;44.53;19.50;;;;;;;21.26;41.94;101293.03;4432343;32;20482;-70
2021/11/11 03:38:18;;;;;;;41.88;18.35;;;;;;;21.24;42.17;101299.25;4434396;32;20057;-70
2021/11/11 03:40:46;;;;;;;45.10;18.98;;;;;;;21.04;42.48;101301.28;4437874;32;20034;-70
2021/11/11 03:43:13;;;;;;;42.05;19.35;;;;;;;21.23;42.30;101303.38;4436052;32;20069;-70
2021/11/11 03:45:39;;;;;;;50.80;19.15;;;;;;;20.95;42.47;101305.06;4435262;32;20041;-70
2021/11/11 03:48:06;;;;;;;44.17;19.65;;;;;;;20.80;42.96;101301.41;4435335;32;20075;-70
2021/11/11 03:50:32;;;;;;;45.12;19.05;;;;;;;21.03;42.68;101306.22;4428105;32;20037;-70
2021/11/11 03:52:58;;;;;;;48.20;19.67;;;;;;;21.00;42.66;101300.69;4433502;32;20130;-70
2021/11/11 03:55:25;;;;;;;40.08;18.65;;;;;;;20.94;42.69;101299.78;4434372;32;20104;-70
2021/11/11 03:57:55;;;;;;;47.40;20.42;;;;;;;20.83;43.14;101305.38;4437187;32;20610;-70
2021/11/11 04:00:21;;;;;;;43.58;19.87;;;;;;;20.94;42.89;101300.63;4435221;32;21709;-70
2021/11/11 04:02:48;;;;;;;44.20;19.48;;;;;;;20.83;43.05;101305.38;4435138;32;20128;-70
2021/11/11 04:05:14;;;;;;;44.03;19.48;;;;;;;20.86;43.00;101304.37;4433978;32;20085;-70
2021/11/11 04:07:40;;;;;;;52.78;23.50;;;;;;;20.84;43.08;101310.59;4437361;32;20674;-70
2021/11/11 04:10:08;;;;;;;45.88;20.50;;;;;;;20.48;43.85;101308.16;4437719;32;20097;-70
2021/11/11 04:12:34;;;;;;;46.55;21.37;;;;;;;20.43;44.08;101299.50;4441576;32;20105;-70
2021/11/11 04:14:59;;;;;;;56.08;22.67;;;;;;;20.31;43.99;101298.47;4435759;32;20108;-70
2021/11/11 04:17:25;;;;;;;53.38;21.37;;;;;;;20.25;44.39;101299.69;4436916;32;20049;-70
2021/11/11 04:19:51;;;;;;;49.70;20.23;;;;;;;20.24;44.24;101300.94;4432592;32;20686;-70
2021/11/11 04:22:19;;;;;;;47.35;21.40;;;;;;;20.14;44.45;101299.47;4434533;32;20030;-70
2021/11/11 04:24:46;;;;;;;45.53;21.08;;;;;;;20.22;44.35;101298.56;4438437;32;20046;-70
2021/11/11 04:27:25;;;;;;;47.28;20.02;;;;;;;20.28;44.09;101288.03;4438744;32;20064;-70
2021/11/11 04:30:03;;;;;;;50.17;21.33;;;;;;;20.20;44.21;101298.28;4437171;32;20092;-70
2021/11/11 04:32:29;;;;;;;54.28;22.30;;;;;;;20.38;43.99;101289.53;4438253;32;20026;-70
2021/11/11 04:34:58;;;;;;;52.53;21.62;;;;;;;20.25;44.22;101288.25;4436934;32;20038;-70
2021/11/11 04:37:29;;;;;;;46.85;21.65;;;;;;;20.27;44.10;101282.81;4435563;32;20078;-70
2021/11/11 04:42:55;;;;;;;49.05;20.85;;;;;;;20.98;43.32;101288.94;3979372;32;15118464;-71
2021/11/11 04:46:09;;;;;;;49.25;21.08;;;;;;;20.98;43.32;101288.94;4428307;32;20052;-71
2021/11/11 05:04:37;;;;;;;55.50;21.95;;;;;;;20.72;43.48;101288.81;3956851;32;15727435;-71
2021/11/11 05:07:03;;;;;;;48.72;22.23;;;;;;;20.72;43.48;101288.81;4431980;32;20081;-71
2021/11/11 05:09:29;;;;;;;54.03;21.62;;;;;;;20.26;44.16;101279.19;4433786;32;20041;-71
2021/11/11 05:11:55;;;;;;;50.65;21.12;;;;;;;20.09;44.53;101280.13;4433169;32;20189;-71
2021/11/11 05:14:21;;;;;;;59.45;22.52;;;;;;;19.93;44.76;101275.66;4431923;32;20081;-71
2021/11/11 05:16:46;;;;;;;43.47;21.35;;;;;;;19.66;45.32;101278.75;4431246;32;20460;-71
2021/11/11 05:19:12;;;;;;;49.33;22.05;;;;;;;19.64;45.35;101284.94;4432877;32;20094;-71
2021/11/11 05:21:38;;;;;;;57.95;22.60;;;;;;;19.61;45.37;101280.22;4430092;32;20145;-71
2021/11/11 05:24:04;;;;;;;47.42;21.02;;;;;;;19.49;45.69;101284.13;4419375;32;20046;-71
2021/11/11 05:26:29;;;;;;;50.42;21.67;;;;;;;19.11;46.64;101284.03;4432126;32;20348;-71
2021/11/11 05:28:56;;;;;;;50.75;22.17;;;;;;;19.21;46.47;101294.09;4434002;32;20152;-71
2021/11/11 05:31:22;;;;;;;52.80;22.00;;;;;;;19.25;46.40;101291.09;4430802;32;20802;-71
2021/11/11 05:33:47;;;;;;;48.38;22.67;;;;;;;18.96;46.88;101293.81;4430440;32;20064;-71
2021/11/11 05:36:13;;;;;;;49.13;20.95;;;;;;;18.81;46.87;101290.84;4429536;32;20110;-71
2021/11/11 05:38:39;;;;;;;45.95;21.80;;;;;;;18.74;47.00;101291.19;4432805;32;20049;-71
2021/11/11 05:41:05;;;;;;;48.28;21.35;;;;;;;18.64;47.27;101298.22;4433835;32;20049;-71
2021/11/11 05:43:30;;;;;;;50.35;19.73;;;;;;;18.54;47.45;101293.03;4433751;32;20101;-70
2021/11/11 05:45:56;;;;;;;46.33;20.85;;;;;;;18.44;47.49;101291.47;4430568;32;20085;-71
2021/11/11 05:48:22;;;;;;;52.55;21.00;;;;;;;18.33;47.50;101289.09;4434566;32;20033;-71
2021/11/11 05:50:48;;;;;;;52.65;21.70;;;;;;;18.26;47.76;101295.13;4428995;32;20057;-71
2021/11/11 05:53:14;;;;;;;57.72;22.77;;;;;;;18.20;47.86;101299.91;4432248;32;20037;-71
2021/11/11 05:55:39;;;;;;;54.47;21.90;;;;;;;18.15;48.02;101305.44;4430685;32;20097;-71
2021/11/11 05:58:05;;;;;;;54.25;23.15;;;;;;;18.06;48.05;101303.38;4432968;32;20344;-71
2021/11/11 06:00:31;;;;;;;52.38;20.95;;;;;;;17.93;48.34;101294.22;4434051;32;20085;-70
2021/11/11 06:02:57;;;;;;;54.33;21.05;;;;;;;18.06;47.84;101308.28;4431674;32;20075;-70
2021/11/11 06:05:22;;;;;;;52.38;21.60;;;;;;;17.88;48.35;101307.03;4429593;32;20084;-70
2021/11/11 06:07:48;;;;;;;54.67;21.62;;;;;;;17.93;48.23;101314.16;4417804;32;20041;-71
2021/11/11 06:10:14;;;;;;;51.83;22.58;;;;;;;17.93;48.21;101305.63;4429096;32;20486;-70
2021/11/11 06:12:40;;;;;;;53.17;21.75;;;;;;;18.04;47.72;101323.00;4429888;32;20037;-70
2021/11/11 06:15:07;;;;;;;51.50;22.23;;;;;;;17.98;48.13;101312.75;4425922;32;20733;-71
2021/11/11 06:17:33;;;;;;;55.78;23.17;;;;;;;18.04;48.18;101314.47;4419826;32;20405;-70
2021/11/11 06:20:00;;;;;;;56.78;22.35;;;;;;;17.89;48.28;101317.16;4420501;32;20073;-70
2021/11/11 06:22:26;;;;;;;55.40;21.67;;;;;;;17.84;48.30;101320.66;4422434;32;20049;-71
2021/11/11 06:24:52;;;;;;;58.47;21.75;;;;;;;17.88;48.13;101320.47;4424078;32;20069;-71
2021/11/11 06:27:18;;;;;;;57.15;22.23;;;;;;;17.81;48.35;101313.06;4420158;32;20068;-70
2021/11/11 06:29:44;;;;;;;58.58;21.70;;;;;;;17.93;48.46;101317.00;4418443;32;20077;-71
2021/11/11 06:32:10;;;;;;;57.78;22.45;;;;;;;17.76;48.63;101313.69;4422376;32;20085;-71
2021/11/11 06:34:35;;;;;;;55.08;22.95;;;;;;;17.82;48.49;101314.63;4424198;32;20480;-71
2021/11/11 06:37:01;;;;;;;51.83;21.92;;;;;;;17.77;48.57;101306.72;4420927;32;20073;-70
2021/11/11 06:39:29;;;;;;;55.78;22.17;;;;;;;17.64;48.98;101311.78;4420565;32;20112;-71
2021/11/11 06:41:54;;;;;;;54.67;21.83;;;;;;;17.67;48.96;101315.72;4419766;32;20105;-71
2021/11/11 06:44:22;;;;;;;50.45;21.25;;;;;;;17.67;48.91;101316.53;4420906;32;20112;-70
2021/11/11 06:46:50;;;;;;;54.35;22.80;;;;;;;17.63;48.91;101315.09;4420942;32;20090;-70
2021/11/11 06:49:15;;;;;;;52.67;21.75;;;;;;;17.69;49.05;101324.59;4417665;32;21669;-70
2021/11/11 06:51:41;;;;;;;56.97;22.92;;;;;;;17.58;49.10;101322.22;4419854;32;20085;-70
2021/11/11 06:54:08;;;;;;;52.15;20.67;;;;;;;17.56;49.21;101321.13;4419352;32;20100;-70
2021/11/11 06:56:36;;;;;;;55.65;21.87;;;;;;;17.53;49.19;101322.88;4419416;32;20165;-70
2021/11/11 06:59:02;;;;;;;50.58;19.00;;;;;;;17.72;48.90;101327.31;4421927;32;20119;-70
2021/11/11 07:01:28;;;;;;;49.85;21.02;;;;;;;17.69;48.80;101336.78;4423994;32;20104;-70
2021/11/11 07:03:53;;;;;;;52.85;20.45;;;;;;;17.48;49.00;101346.25;4419741;32;20050;-70
2021/11/11 07:06:19;;;;;;;54.10;20.65;;;;;;;17.62;48.68;101334.22;4420306;32;20743;-70
2021/11/11 07:08:45;;;;;;;52.10;20.35;;;;;;;17.71;48.58;101331.41;4416609;32;20053;-71
2021/11/11 07:11:11;;;;;;;52.67;20.85;;;;;;;17.68;48.46;101328.72;4400425;32;20646;-70
2021/11/11 07:13:37;;;;;;;52.53;21.10;;;;;;;17.63;48.49;101338.69;4420983;32;20457;-70
2021/11/11 07:16:03;;;;;;;50.47;20.25;;;;;;;17.65;48.43;101336.13;4418981;32;20045;-70
2021/11/11 07:18:29;;;;;;;53.30;20.85;;;;;;;17.49;48.89;101344.19;4420305;32;20103;-70
2021/11/11 07:20:54;;;;;;;53.47;20.73;;;;;;;17.39;48.85;101353.94;4418752;32;20030;-70
2021/11/11 07:23:23;;;;;;;55.20;21.23;;;;;;;17.33;48.92;101350.12;4420197;32;20419;-70
2021/11/11 07:25:50;;;;;;;60.80;23.38;;;;;;;17.35;48.96;101348.41;4417821;32;20121;-70
2021/11/11 07:28:16;;;;;;;61.58;22.73;;;;;;;17.43;48.75;101346.09;4419547;32;20139;-70
2021/11/11 07:30:44;;;;;;;51.72;20.15;;;;;;;17.31;48.87;101339.22;4419362;32;20321;-70
2021/11/11 07:33:11;;;;;;;58.90;21.73;;;;;;;17.27;48.67;101352.78;4419676;32;20088;-70
2021/11/11 07:35:39;;;;;;;59.22;22.27;;;;;;;17.39;48.80;101360.41;4416891;32;20100;-71
2021/11/11 07:38:06;;;;;;;50.47;21.55;;;;;;;17.26;49.01;101365.44;4413204;32;20085;-70
2021/11/11 07:40:32;;;;;;;54.67;20.92;;;;;;;17.34;49.02;101358.19;4414874;32;20074;-70
2021/11/11 07:42:58;;;;;;;58.65;22.75;;;;;;;17.32;48.78;101357.06;4413183;32;20064;-70
2021/11/11 07:45:25;;;;;;;64.28;25.92;;;;;;;17.23;48.87;101360.69;4411503;32;20103;-70
2021/11/11 07:47:54;;;;;;;61.00;23.12;;;;;;;17.18;48.83;101357.69;4415379;32;20097;-71
2021/11/11 07:50:21;;;;;;;60.30;22.80;;;;;;;17.32;48.26;101357.88;4415116;32;20089;-71
2021/11/11 07:52:47;;;;;;;53.75;20.17;;;;;;;17.45;47.93;101354.91;4409681;32;20138;-70
2021/11/11 07:55:13;;;;;;;55.25;19.73;;;;;;;17.30;48.14;101368.94;4406910;32;20085;-71
2021/11/11 07:57:39;;;;;;;49.50;20.05;;;;;;;17.36;48.11;101371.94;4413026;32;20112;-71
2021/11/11 08:00:08;;;;;;;56.22;20.83;;;;;;;17.13;48.48;101367.62;4413117;32;20104;-71
2021/11/11 08:02:34;;;;;;;56.95;19.87;;;;;;;17.36;48.13;101367.06;4403832;32;20710;-71
2021/11/11 08:05:00;;;;;;;52.60;19.20;;;;;;;17.24;47.86;101364.31;4411154;32;20345;-71
2021/11/11 08:07:27;;;;;;;54.08;19.87;;;;;;;17.25;47.89;101361.00;4408532;32;20121;-70
2021/11/11 08:09:52;;;;;;;62.47;20.85;;;;;;;17.27;47.88;101358.50;4400958;32;20527;-71
2021/11/11 08:12:22;;;;;;;45.28;19.08;;;;;;;17.34;47.93;101361.03;4409431;32;20080;-71
2021/11/11 08:14:48;;;;;;;48.10;18.77;;;;;;;17.37;47.99;101357.25;4406608;32;20073;-71
2021/11/11 08:17:18;;;;;;;52.15;18.70;;;;;;;17.44;47.93;101368.38;4408844;32;20069;-71
2021/11/11 08:19:44;;;;;;;50.88;17.80;;;;;;;17.48;47.84;101362.50;4408729;32;21295;-70
2021/11/11 08:22:11;;;;;;;49.75;19.37;;;;;;;17.61;47.58;101357.47;4409090;32;20045;-71
2021/11/11 08:24:42;;;;;;;43.00;18.30;;;;;;;17.89;47.27;101367.66;4404746;32;20441;-71
2021/11/11 08:27:09;;;;;;;42.38;17.83;;;;;;;17.77;47.49;101368.59;4393320;32;20081;-71
2021/11/11 08:29:35;;;;;;;40.67;17.42;;;;;;;18.03;46.88;101367.00;4410101;32;20073;-71
2021/11/11 08:32:01;;;;;;;41.45;16.90;;;;;;;17.84;47.20;101363.38;4409391;32;20411;-71
2021/11/11 08:34:27;;;;;;;38.53;16.67;;;;;;;18.02;47.16;101361.78;4406060;32;20088;-71
2021/11/11 08:36:54;;;;;;;44.80;17.20;;;;;;;18.07;46.97;101367.62;4403871;32;20427;-71
2021/11/11 08:39:20;;;;;;;42.88;16.20;;;;;;;18.17;46.65;101368.44;4406184;32;20089;-71
2021/11/11 08:41:46;;;;;;;39.95;16.87;;;;;;;18.08;46.66;101366.38;4408377;32;20081;-71
2021/11/11 08:44:12;;;;;;;33.95;15.75;;;;;;;18.26;46.04;101368.41;4410427;32;20080;-71
2021/11/11 08:46:38;;;;;;;36.97;16.35;;;;;;;18.37;46.26;101363.84;4406810;32;21025;-71
2021/11/11 08:49:05;;;;;;;37.05;14.55;;;;;;;18.51;45.90;101365.25;4403509;32;20085;-70
2021/11/11 08:51:35;;;;;;;35.25;15.80;;;;;;;18.62;45.68;101368.41;4407746;32;20466;-71
2021/11/11 08:54:03;;;;;;;37.92;15.55;;;;;;;18.58;45.68;101374.25;4410830;32;20081;-71
2021/11/11 08:56:30;;;;;;;33.10;15.25;;;;;;;18.88;44.94;101373.22;4407550;32;20464;-71
2021/11/11 08:58:59;;;;;;;34.85;15.50;;;;;;;18.96;44.90;101379.37;4408823;32;20046;-70
2021/11/11 09:01:24;;;;;;;39.72;16.02;;;;;;;19.01;44.95;101379.50;4410539;32;20042;-70
2021/11/11 09:03:50;;;;;;;30.40;14.38;;;;;;;18.91;44.61;101372.25;4411057;32;20087;-70
2021/11/11 09:06:16;;;;;;;36.00;14.95;;;;;;;18.94;44.51;101368.44;4410916;32;20431;-70
2021/11/11 09:08:42;;;;;;;32.20;15.45;;;;;;;19.42;43.70;101375.06;4406545;32;20201;-71
2021/11/11 09:11:09;;;;;;;33.63;15.07;;;;;;;19.79;43.42;101376.41;4411502;32;20145;-71
2021/11/11 09:13:35;;;;;;;29.98;13.62;;;;;;;20.13;42.44;101380.75;4408667;32;20398;-71
2021/11/11 09:16:02;;;;;;;26.33;12.15;;;;;;;20.08;42.38;101387.91;4406767;32;20396;-71
2021/11/11 09:18:28;;;;;;;28.08;12.90;;;;;;;20.27;42.23;101380.78;4411322;32;20410;-71
2021/11/11 09:20:54;;;;;;;29.23;13.27;;;;;;;20.34;41.95;101388.19;4412780;32;20093;-71
2021/11/11 09:23:20;;;;;;;22.80;11.88;;;;;;;20.62;40.77;101378.06;4410923;32;20157;-71
2021/11/11 09:25:48;;;;;;;22.50;11.70;;;;;;;20.53;41.08;101381.03;4411625;32;20117;-70
2021/11/11 09:28:14;;;;;;;23.25;10.73;;;;;;;20.57;40.72;101381.59;4412018;32;20355;-71
2021/11/11 09:30:41;;;;;;;22.85;11.10;;;;;;;21.03;40.54;101388.44;4411726;32;20725;-71
2021/11/11 09:33:09;;;;;;;22.23;11.10;;;;;;;21.12;40.30;101386.25;4413375;32;20046;-72
2021/11/11 09:35:35;;;;;;;24.17;11.95;;;;;;;21.33;39.81;101387.09;4405818;32;20608;-72
2021/11/11 09:38:02;;;;;;;19.15;10.27;;;;;;;21.42;39.98;101398.44;4409423;32;20158;-71
2021/11/11 09:40:30;;;;;;;22.30;10.25;;;;;;;21.25;39.94;101392.44;4408758;32;20580;-72
2021/11/11 09:42:57;;;;;;;23.58;10.88;;;;;;;21.53;39.52;101393.63;4407965;32;20084;-72
2021/11/11 09:45:27;;;;;;;22.00;10.00;;;;;;;21.30;39.97;101388.09;4406894;32;20120;-72
2021/11/11 09:47:54;;;;;;;17.30;9.13;;;;;;;21.64;38.97;101387.28;4406651;32;20085;-71
2021/11/11 09:50:22;;;;;;;19.02;9.48;;;;;;;21.86;38.81;101383.94;4408635;32;20180;-71
2021/11/11 09:52:50;;;;;;;16.52;9.55;;;;;;;21.68;39.19;101388.66;4410365;32;20157;-71
2021/11/11 10:00:51;;;;;;;19.75;8.82;;;;;;;21.75;38.91;101393.19;4409335;32;20069;-71
2021/11/11 10:03:18;;;;;;;15.05;8.25;;;;;;;21.91;38.78;101381.19;4411219;32;20089;-71
2021/11/11 10:05:44;;;;;;;15.80;8.95;;;;;;;21.95;38.64;101383.81;4411025;32;20085;-70
2021/11/11 10:08:31;;;;;;;19.30;10.38;;;;;;;22.12;37.99;101382.72;4413939;32;20418;-69
2021/11/11 10:10:56;;;;;;;13.38;7.87;;;;;;;22.80;37.24;101377.22;4409994;32;20064;-70
2021/11/11 10:13:23;;;;;;;15.43;8.30;;;;;;;22.69;36.63;101374.22;4414162;32;20545;-70
2021/11/11 10:16:11;;;;;;;16.05;7.97;;;;;;;23.00;36.27;101377.91;4415639;32;20129;-70
2021/11/11 10:37:29;;;;;;;13.18;7.00;;;;;;;24.64;34.02;101378.50;3955439;32;15034112;-72
2021/11/11 10:42:36;;;;;;;14.93;6.97;;;;;;;24.25;34.04;101366.91;3969699;32;15022347;-72
2021/11/11 10:45:07;;;;;;;14.38;7.07;;;;;;;24.45;34.24;101363.81;4413711;32;20123;-72
2021/11/11 10:47:35;;;;;;;13.88;6.60;;;;;;;24.50;33.55;101365.13;4416403;32;20424;-72
2021/11/11 10:50:08;;;;;;;15.80;7.12;;;;;;;24.70;33.35;101362.81;4420595;32;20483;-72
2021/11/11 11:03:33;;;;;;;15.77;8.75;;;;;;;25.66;32.01;101339.16;3968990;32;15021829;-71
2021/11/11 11:06:04;;;;;;;18.23;8.13;;;;;;;25.66;32.01;101339.16;4417073;32;20437;-70
2021/11/11 11:11:19;;;;;;;14.48;7.65;;;;;;;25.40;31.94;101327.97;3965558;32;15022239;-72
2021/11/11 11:13:48;;;;;;;18.75;8.23;;;;;;;25.41;32.05;101325.88;4413879;32;20095;-72
2021/11/11 11:16:17;;;;;;;13.23;7.95;;;;;;;25.42;32.07;101328.22;4411696;32;20081;-72
2021/11/11 11:18:49;;;;;;;15.60;7.97;;;;;;;25.30;32.39;101326.66;4415681;32;20423;-72
2021/11/11 11:21:18;;;;;;;15.07;8.13;;;;;;;25.37;32.22;101324.06;4413227;32;20470;-72
2021/11/11 11:23:49;;;;;;;13.82;8.13;;;;;;;25.51;31.88;101333.72;4412643;32;20038;-69
2021/11/11 11:29:11;;;;;;;17.73;7.82;;;;;;;25.37;32.73;101326.94;3955137;32;15021638;-70
2021/11/11 11:34:23;;;;;;;15.02;7.90;;;;;;;25.61;32.26;101322.69;3975658;32;15021240;-71
2021/11/11 11:37:03;;;;;;;15.20;7.95;;;;;;;25.61;32.26;101322.69;4411134;32;20093;-71
2021/11/11 11:42:08;;;;;;;19.58;7.82;;;;;;;25.76;32.24;101321.03;3973206;32;15025245;-71
2021/11/11 11:49:53;;;;;;;15.50;7.95;;;;;;;25.53;32.56;101301.47;3947207;32;15723314;-73
2021/11/11 11:52:21;;;;;;;18.00;8.52;;;;;;;25.30;32.88;101304.41;4426199;32;20097;-71
2021/11/11 12:00:13;;;;;;;15.13;8.45;;;;;;;25.80;32.55;101284.06;3974967;32;15021741;-72
2021/11/11 12:02:50;;;;;;;15.77;8.50;;;;;;;25.80;32.55;101284.06;4430139;32;20096;-72
2021/11/11 12:05:27;;;;;;;15.45;8.57;;;;;;;25.24;33.33;101276.91;4424066;32;20087;-72
2021/11/11 12:10:55;;;;;;;13.98;7.93;;;;;;;24.79;33.85;101278.31;4428162;32;20041;-71
2021/11/11 12:30:00;;;;;;;17.23;9.70;;;;;;;25.75;33.35;101261.81;4425087;32;20103;-72
2021/11/11 12:38:35;;;;;;;19.40;10.77;;;;;;;27.85;30.19;101243.31;4425104;32;20081;-72
2021/11/11 12:41:18;;;;;;;21.10;9.95;;;;;;;28.47;29.18;101256.38;4425041;32;20072;-72
2021/11/11 12:44:10;;;;;;;18.95;11.75;;;;;;;28.64;28.64;101251.09;4424019;32;20098;-72
2021/11/11 12:46:40;;;;;;;21.30;12.48;;;;;;;28.86;28.68;101247.00;4424517;32;20098;-72
2021/11/11 12:52:22;;;;;;;23.00;13.25;;;;;;;28.01;30.09;101233.66;3919702;32;15722447;-72
2021/11/11 12:54:50;;;;;;;24.20;13.77;;;;;;;28.01;30.09;101233.66;4384010;32;20068;-71
2021/11/11 12:57:18;;;;;;;24.60;13.38;;;;;;;27.34;31.04;101227.19;4396907;32;20266;-70